Oneida, New York
Current Conditions -  °F | °C
As of 6:53 AM on Sunday 23 Nov 2014 (Local Time) from KRME Reporting Station
Overcast Overcast  
Wind Chill: 35°   Ceiling: 3000
Heat Index: 40°   Visibility: 10mi
Dew Point: 38°   Wind: 7mph
Humidity: 93%   Direction: 80°E
Pressure: 30.07"   Gusts: NA
Location:  43.1°N, 75.65°W
Report Text: KRME 231153Z 08006KT 10SM OVC030 04/03 A3007 RMK AO2 SLP186 60015 70038 T00440033 10044 20028 51007
Loading
Personal Weather Stations






























Interactive Weather Map New forecast layout! Learn more

10-Day Weather Forecast

Advertisements
Track Severe Weather on mobile